Time;durP1;ratioP1;P1;durP2;ratioP2;P2;SDS_P1;SDS_P2;PMS_P1;PMS_P2;Temp;Humidity;BMP_temperature;BMP_pressure;BME280_temperature;BME280_humidity;BME280_pressure;Samples;Min_cycle;Max_cycle;Signal;HPM_P1;HPM_P2
2022/03/12 00:01:25;;;;;;;16.07;10.07;;;0.50;66.10;;;0.10;50.35;95802.56;4975748;28;20448;-56
2022/03/12 00:03:53;;;;;;;13.57;9.67;;;0.50;66.70;;;0.07;50.22;95796.66;4976801;28;20959;-58
2022/03/12 00:06:21;;;;;;;19.53;9.93;;;0.50;66.70;;;0.06;50.77;95810.50;4979567;28;20464;-62
2022/03/12 00:08:51;;;;;;;22.40;10.70;;;0.40;67.30;;;0.03;51.16;95806.25;4986755;28;20467;-53
2022/03/12 00:11:20;;;;;;;15.53;10.10;;;0.40;67.20;;;0.00;51.49;95803.81;4968868;28;20458;-60
2022/03/12 00:13:47;;;;;;;13.43;9.23;;;0.40;67.50;;;-0.05;51.46;95809.13;4972273;28;21082;-55
2022/03/12 00:16:21;;;;;;;18.63;11.53;;;0.30;68.40;;;-0.13;52.70;95810.28;4972369;28;20545;-57
2022/03/12 00:18:53;;;;;;;16.27;10.70;;;0.30;69.80;;;-0.22;52.39;95812.28;4982046;28;20954;-57
2022/03/12 00:21:24;;;;;;;28.03;13.67;;;0.20;70.30;;;-0.28;52.52;95816.78;4978133;28;20444;-60
2022/03/12 00:23:53;;;;;;;29.63;14.53;;;0.10;70.20;;;-0.35;52.98;95821.34;4974518;28;20494;-56
2022/03/12 00:26:21;;;;;;;27.40;14.40;;;0.10;71.20;;;-0.39;52.99;95815.44;4978262;28;20455;-60
2022/03/12 00:28:48;;;;;;;31.23;15.10;;;0.00;71.50;;;-0.44;53.40;95817.28;4980792;28;20951;-56
2022/03/12 00:31:17;;;;;;;27.70;14.90;;;0.00;73.10;;;-0.47;54.79;95817.41;4977415;28;20465;-56
2022/03/12 00:33:44;;;;;;;22.43;14.03;;;-0.10;75.20;;;-0.52;55.50;95819.28;4974193;28;20602;-60
2022/03/12 00:36:12;;;;;;;27.63;14.47;;;-0.10;77.00;;;-0.55;54.17;95824.56;4979481;28;20451;-60
2022/03/12 00:38:39;;;;;;;24.23;13.70;;;-0.10;75.40;;;-0.53;54.06;95816.75;4978720;28;20871;-54
2022/03/12 00:41:07;;;;;;;27.87;13.83;;;-0.10;75.20;;;-0.51;55.36;95822.72;4982898;28;20477;-55
2022/03/12 00:43:34;;;;;;;22.57;13.13;;;-0.10;76.80;;;-0.51;55.82;95831.31;4973561;28;20491;-60
2022/03/12 00:46:03;;;;;;;15.90;10.60;;;-0.10;77.50;;;-0.54;55.55;95823.69;4974904;28;20459;-56
2022/03/12 00:48:32;;;;;;;16.17;9.13;;;-0.10;77.80;;;-0.59;56.41;95823.81;4979447;28;21081;-56
2022/03/12 00:50:59;;;;;;;13.20;9.20;;;-0.20;79.10;;;-0.61;57.80;95819.59;4982546;28;20461;-56
2022/03/12 00:53:26;;;;;;;13.13;9.50;;;-0.20;81.40;;;-0.66;56.50;95822.31;4973601;28;20475;-56
2022/03/12 00:55:54;;;;;;;15.00;9.60;;;-0.20;79.60;;;-0.72;58.10;95820.75;4973300;28;20511;-59
2022/03/12 00:58:21;;;;;;;7.23;6.37;;;-0.30;82.70;;;-0.76;59.79;95826.06;4980406;28;20476;-56
2022/03/12 01:00:48;;;;;;;10.23;6.00;;;-0.40;84.60;;;-0.83;58.60;95829.75;4979066;28;20912;-56
2022/03/12 01:03:16;;;;;;;6.63;6.00;;;-0.40;84.10;;;-0.88;58.79;95826.44;4973236;28;20486;-61
2022/03/12 01:05:55;;;;;;;7.80;6.10;;;-0.50;84.10;;;-0.89;58.71;95827.34;4972147;28;20551;-56
2022/03/12 01:08:23;;;;;;;6.57;5.13;;;-0.50;84.40;;;-0.90;58.56;95826.50;4971978;28;20577;-59
2022/03/12 01:10:51;;;;;;;8.93;6.30;;;-0.50;83.60;;;-0.90;57.31;95823.91;4978880;28;20494;-60
2022/03/12 01:13:18;;;;;;;8.23;6.40;;;-0.50;82.90;;;-0.94;60.35;95832.66;4981275;28;20506;-56
2022/03/12 01:15:45;;;;;;;13.50;8.40;;;-0.50;86.10;;;-0.97;59.67;95828.41;4976392;28;20455;-59
2022/03/12 01:18:14;;;;;;;15.27;8.70;;;-0.60;86.20;;;-1.00;59.35;95832.84;4976549;28;21004;-56
2022/03/12 01:20:42;;;;;;;9.70;7.00;;;-0.60;85.40;;;-1.01;60.65;95825.97;4976988;28;21022;-56
2022/03/12 01:23:13;;;;;;;8.70;6.67;;;-0.60;87.50;;;-1.02;59.18;95832.88;4982732;28;20466;-55
2022/03/12 01:25:40;;;;;;;12.03;7.20;;;-0.60;86.00;;;-0.99;58.36;95837.97;4969419;28;20518;-60
2022/03/12 01:28:09;;;;;;;8.03;6.60;;;-0.60;84.70;;;-1.02;58.70;95832.03;4974520;28;20479;-61
2022/03/12 01:30:36;;;;;;;6.63;5.93;;;-0.60;84.70;;;-1.01;58.78;95831.16;4980577;28;20554;-60
2022/03/12 01:33:04;;;;;;;9.33;6.60;;;-0.60;84.80;;;-0.97;58.88;95832.75;4980826;28;20479;-61
2022/03/12 01:35:32;;;;;;;6.60;5.60;;;-0.60;84.80;;;-0.97;57.64;95831.00;4972220;28;20960;-56
2022/03/12 01:37:59;;;;;;;8.53;5.50;;;-0.60;83.50;;;-1.02;57.09;95826.88;4964516;28;20475;-58
2022/03/12 01:40:28;;;;;;;5.47;4.57;;;-0.60;82.00;;;-1.11;57.85;95828.00;4975537;28;20630;-56
2022/03/12 01:42:56;;;;;;;6.77;5.17;;;-0.60;83.10;;;-1.21;58.59;95819.66;4976776;28;20847;-62
2022/03/12 01:45:27;;;;;;;7.80;5.63;;;-0.70;83.70;;;-1.29;59.23;95811.31;4980535;28;20651;-60
2022/03/12 01:47:55;;;;;;;6.20;5.23;;;-0.80;84.50;;;-1.29;58.92;95816.47;4975122;28;20530;-57
2022/03/12 01:50:25;;;;;;;5.20;4.70;;;-0.80;84.60;;;-1.30;58.86;95817.34;4975767;28;20872;-57
2022/03/12 01:52:54;;;;;;;5.20;4.70;;;-0.90;84.40;;;-1.33;58.81;95814.88;4983349;28;20478;-61
2022/03/12 01:55:22;;;;;;;10.43;6.23;;;-0.90;84.50;;;-1.33;58.46;95820.06;4979756;28;20474;-60
2022/03/12 01:57:51;;;;;;;11.33;5.73;;;-0.90;84.00;;;-1.33;58.24;95818.31;4971312;28;21016;-61
2022/03/12 02:00:24;;;;;;;7.07;4.10;;;-0.90;84.00;;;-1.31;58.69;95818.25;4976802;28;20467;-60
2022/03/12 02:02:54;;;;;;;4.87;4.27;;;-0.90;84.00;;;-1.30;57.64;95809.59;4985031;28;20903;-56
2022/03/12 02:05:27;;;;;;;5.07;4.57;;;-0.90;83.30;;;-1.32;58.04;95819.13;4982475;28;20494;-58
2022/03/12 02:07:58;;;;;;;5.73;4.67;;;-0.90;82.80;;;-1.32;57.93;95822.59;4974981;28;20552;-61
2022/03/12 02:10:26;;;;;;;5.23;4.73;;;-0.90;84.10;;;-1.30;58.54;95825.97;4981299;28;20553;-57
2022/03/12 02:12:54;;;;;;;6.30;5.40;;;-0.90;84.50;;;-1.24;58.18;95824.91;4981027;28;20539;-54
2022/03/12 02:15:22;;;;;;;7.57;5.33;;;-0.80;83.90;;;-1.22;57.89;95828.31;4984795;28;20447;-60
2022/03/12 02:17:50;;;;;;;7.37;5.87;;;-0.80;83.10;;;-1.15;57.49;95827.22;4977061;28;20940;-61
2022/03/12 02:20:19;;;;;;;8.67;5.97;;;-0.70;83.20;;;-1.08;57.66;95827.91;4976678;28;21060;-60
2022/03/12 02:22:46;;;;;;;7.47;5.67;;;-0.70;82.90;;;-1.01;57.85;95825.97;4980334;28;20858;-60
2022/03/12 02:25:15;;;;;;;10.10;5.53;;;-0.60;83.30;;;-0.95;57.40;95820.63;4988166;28;21135;-59
2022/03/12 02:27:42;;;;;;;6.93;5.33;;;-0.60;82.70;;;-0.91;57.52;95827.41;4971784;28;20474;-61
2022/03/12 02:30:12;;;;;;;5.70;5.20;;;-0.50;82.60;;;-0.86;57.39;95830.69;4978455;28;20478;-58
2022/03/12 02:32:39;;;;;;;5.47;4.97;;;-0.50;82.70;;;-0.86;57.56;95835.00;4982661;28;20505;-61
2022/03/12 02:35:10;;;;;;;6.50;5.87;;;-0.40;82.80;;;-0.85;58.18;95829.78;4986623;28;20451;-55
2022/03/12 02:37:41;;;;;;;15.53;5.30;;;-0.40;83.00;;;-0.84;57.39;95834.06;4975060;28;20499;-56
2022/03/12 02:40:10;;;;;;;10.97;5.50;;;-0.40;82.70;;;-0.80;57.46;95829.66;4978392;28;20473;-55
2022/03/12 02:42:39;;;;;;;6.70;4.60;;;-0.40;82.70;;;-0.77;58.03;95835.56;4980210;28;20482;-63
2022/03/12 02:45:08;;;;;;;7.40;5.93;;;-0.40;83.50;;;-0.77;57.34;95832.16;4983045;28;20490;-60
2022/03/12 02:47:38;;;;;;;6.70;5.77;;;-0.30;83.20;;;-0.72;57.56;95838.84;4979306;28;20504;-61
2022/03/12 02:50:07;;;;;;;7.60;5.50;;;-0.30;82.70;;;-0.68;57.35;95833.56;4974019;28;20443;-60
2022/03/12 02:52:40;;;;;;;7.00;6.30;;;-0.30;82.90;;;-0.67;57.67;95840.44;4977813;28;21002;-55
2022/03/12 02:55:12;;;;;;;6.57;5.97;;;-0.30;82.70;;;-0.66;57.64;95842.16;4981440;28;20447;-61
2022/03/12 02:57:43;;;;;;;7.23;6.23;;;-0.30;82.60;;;-0.64;57.11;95842.94;4977807;28;20786;-60
2022/03/12 03:00:13;;;;;;;8.53;5.30;;;-0.20;82.50;;;-0.63;57.31;95844.63;4976679;28;20905;-56
2022/03/12 03:02:41;;;;;;;8.20;5.67;;;-0.20;82.30;;;-0.61;57.28;95845.41;4978101;28;20863;-60
2022/03/12 03:05:23;;;;;;;13.23;6.40;;;-0.20;82.20;;;-0.61;57.28;95840.25;4980577;28;20494;-60
2022/03/12 03:07:56;;;;;;;9.30;7.00;;;-0.20;82.20;;;-0.60;57.74;95849.72;4988187;28;20475;-61
2022/03/12 03:10:33;;;;;;;8.03;6.70;;;-0.20;83.00;;;-0.62;57.36;95847.16;4975213;28;20920;-60
2022/03/12 03:13:16;;;;;;;8.83;5.90;;;-0.20;82.80;;;-0.61;57.53;95850.59;4977004;28;20550;-56
2022/03/12 03:15:44;;;;;;;8.90;6.90;;;-0.20;83.10;;;-0.60;57.39;95852.28;4977410;28;20494;-61
2022/03/12 03:18:16;;;;;;;6.47;5.87;;;-0.20;82.20;;;-0.62;58.06;95848.88;4986312;28;20472;-54
2022/03/12 03:20:43;;;;;;;9.00;5.90;;;-0.20;83.20;;;-0.63;57.75;95853.22;4973732;28;20462;-55
2022/03/12 03:23:10;;;;;;;6.37;5.73;;;-0.20;83.30;;;-0.63;57.66;95854.97;4979851;28;20995;-60
2022/03/12 03:25:38;;;;;;;8.00;5.90;;;-0.20;83.40;;;-0.60;57.80;95857.47;4980977;28;20491;-57
2022/03/12 03:28:07;;;;;;;9.33;6.03;;;-0.20;83.60;;;-0.61;57.91;95859.16;4986654;28;21007;-57
2022/03/12 03:30:36;;;;;;;6.40;5.60;;;-0.20;83.40;;;-0.60;57.82;95860.03;4977203;28;20471;-59
2022/03/12 03:33:06;;;;;;;11.10;6.37;;;-0.20;83.50;;;-0.60;58.15;95863.47;4971662;28;20475;-56
2022/03/12 03:35:33;;;;;;;8.30;5.80;;;-0.20;84.20;;;-0.59;58.08;95860.00;4980771;28;20526;-56
2022/03/12 03:38:01;;;;;;;6.10;5.50;;;-0.20;84.20;;;-0.61;58.26;95855.75;4983581;28;20474;-62
2022/03/12 03:40:28;;;;;;;7.77;6.33;;;-0.20;84.10;;;-0.58;58.25;95855.66;4979127;28;20454;-56
2022/03/12 03:42:55;;;;;;;7.20;6.00;;;-0.20;83.90;;;-0.59;58.31;95864.28;4968610;28;20812;-59
2022/03/12 03:45:29;;;;;;;7.87;6.23;;;-0.20;84.00;;;-0.62;58.40;95864.38;4982689;28;20486;-62
2022/03/12 03:47:56;;;;;;;6.93;6.10;;;-0.20;84.50;;;-0.64;58.54;95872.19;4978308;28;20562;-63
2022/03/12 03:50:25;;;;;;;11.00;6.67;;;-0.20;84.30;;;-0.65;58.40;95872.22;4980004;28;20462;-59
2022/03/12 03:52:55;;;;;;;8.27;6.57;;;-0.20;84.30;;;-0.66;58.39;95879.16;4974095;28;20910;-61
2022/03/12 03:55:25;;;;;;;7.60;5.60;;;-0.30;84.20;;;-0.67;58.23;95877.44;4980076;28;20823;-62
2022/03/12 03:57:54;;;;;;;6.17;5.57;;;-0.30;84.30;;;-0.69;58.22;95874.06;4974467;28;21023;-57
2022/03/12 04:00:23;;;;;;;7.73;5.80;;;-0.30;84.60;;;-0.70;58.71;95869.78;4974668;28;20514;-62
2022/03/12 04:03:02;;;;;;;6.80;5.50;;;-0.30;85.00;;;-0.72;57.87;95874.16;4969036;28;20482;-57
2022/03/12 04:05:30;;;;;;;9.03;5.47;;;-0.30;84.30;;;-0.75;57.41;95877.69;4975676;28;20574;-58
2022/03/12 04:08:00;;;;;;;8.17;5.50;;;-0.40;83.50;;;-0.78;58.05;95877.78;4974520;28;20541;-56
2022/03/12 04:10:27;;;;;;;7.43;5.70;;;-0.40;83.90;;;-0.80;58.13;95874.41;4981386;28;20462;-56
2022/03/12 04:12:54;;;;;;;8.00;5.83;;;-0.40;84.00;;;-0.82;58.25;95876.19;4969159;28;21099;-54
2022/03/12 04:15:23;;;;;;;6.20;5.07;;;-0.40;84.10;;;-0.85;57.78;95876.28;4973958;28;20851;-56
2022/03/12 04:17:51;;;;;;;7.63;5.40;;;-0.40;83.60;;;-0.89;58.49;95885.00;4976909;28;20856;-61
2022/03/12 04:20:19;;;;;;;6.53;4.90;;;-0.40;84.30;;;-0.93;58.27;95881.69;4971419;28;20727;-60
2022/03/12 04:22:46;;;;;;;6.47;4.83;;;-0.50;84.00;;;-0.97;58.43;95882.66;4974230;28;20511;-57
2022/03/12 04:25:14;;;;;;;6.50;4.83;;;-0.50;84.70;;;-1.01;58.75;95890.53;4970187;28;20490;-57
2022/03/12 04:27:42;;;;;;;6.10;4.70;;;-0.60;84.80;;;-1.06;59.39;95889.81;4975949;28;20466;-59
2022/03/12 04:30:11;;;;;;;8.00;4.97;;;-0.70;85.60;;;-1.13;59.37;95895.16;4983081;28;20546;-61
2022/03/12 04:32:40;;;;;;;5.10;4.70;;;-0.70;85.30;;;-1.17;59.15;95898.72;4970760;28;20491;-60
2022/03/12 04:35:08;;;;;;;8.17;5.33;;;-0.70;85.40;;;-1.22;58.88;95900.59;4976744;28;20953;-60
2022/03/12 04:37:36;;;;;;;4.87;4.13;;;-0.80;85.50;;;-1.26;59.78;95901.56;4972082;28;20467;-62
2022/03/12 04:40:03;;;;;;;6.20;4.53;;;-0.80;86.10;;;-1.29;59.03;95909.38;4975939;28;20518;-56
2022/03/12 04:42:31;;;;;;;5.90;5.10;;;-0.90;85.50;;;-1.31;59.98;95911.16;4983831;28;20498;-60
2022/03/12 04:44:59;;;;;;;7.73;5.10;;;-0.90;86.40;;;-1.35;60.29;95914.69;4973099;28;20588;-60
2022/03/12 04:47:26;;;;;;;5.77;5.27;;;-0.90;86.60;;;-1.42;59.42;95913.19;4979052;28;20558;-60
2022/03/12 04:49:55;;;;;;;9.07;4.63;;;-1.00;86.40;;;-1.46;60.13;95907.25;4977529;28;20451;-56
2022/03/12 04:52:22;;;;;;;5.87;4.73;;;-1.00;86.40;;;-1.51;59.18;95917.69;4977257;28;20471;-60
2022/03/12 04:54:49;;;;;;;6.03;5.43;;;-1.10;86.30;;;-1.54;60.35;95919.53;4973017;28;20459;-55
2022/03/12 04:57:18;;;;;;;6.47;5.10;;;-1.10;87.30;;;-1.59;60.47;95913.66;4972723;28;20483;-57
2022/03/12 04:59:45;;;;;;;8.37;5.60;;;-1.20;87.50;;;-1.63;60.36;95920.59;4980944;28;20804;-60
2022/03/12 05:02:13;;;;;;;9.40;5.10;;;-1.20;87.20;;;-1.71;60.08;95912.22;4978859;28;20451;-61
2022/03/12 05:04:40;;;;;;;8.03;5.40;;;-1.20;87.20;;;-1.68;60.11;95923.31;4970348;28;20551;-63
2022/03/12 05:07:14;;;;;;;6.47;5.10;;;-1.20;88.40;;;-1.70;60.49;95927.66;4972966;28;20538;-59
2022/03/12 05:09:41;;;;;;;9.63;6.67;;;-1.30;87.70;;;-1.71;60.67;95938.00;4981299;28;20525;-56
2022/03/12 05:12:10;;;;;;;8.60;6.57;;;-1.30;87.80;;;-1.72;60.73;95932.03;4978085;28;20486;-56
2022/03/12 05:14:38;;;;;;;7.73;5.30;;;-1.30;88.40;;;-1.72;61.17;95929.44;4975654;28;21044;-54
2022/03/12 05:17:08;;;;;;;11.13;6.90;;;-1.30;88.80;;;-1.69;60.22;95931.06;4972955;28;20539;-54
2022/03/12 05:19:36;;;;;;;8.67;6.87;;;-1.30;87.90;;;-1.68;60.25;95931.03;4973815;28;20967;-63
2022/03/12 05:22:05;;;;;;;16.40;7.40;;;-1.20;87.50;;;-1.64;61.07;95939.56;4969585;28;20973;-61
2022/03/12 05:24:33;;;;;;;9.53;5.90;;;-1.20;88.40;;;-1.60;60.01;95946.31;4976456;28;20782;-56
2022/03/12 05:27:01;;;;;;;13.40;7.70;;;-1.20;87.80;;;-1.56;60.02;95947.09;4968582;28;20578;-61
2022/03/12 05:29:29;;;;;;;9.90;6.63;;;-1.10;87.80;;;-1.54;60.01;95951.31;4969593;28;20870;-60
2022/03/12 05:31:56;;;;;;;8.53;6.50;;;-1.10;87.00;;;-1.47;60.07;95952.84;4967162;28;20463;-58
2022/03/12 05:34:24;;;;;;;8.90;6.97;;;-1.10;86.80;;;-1.42;59.22;95947.56;4975628;28;21003;-56
2022/03/12 05:36:52;;;;;;;8.90;6.43;;;-1.00;86.40;;;-1.35;59.42;95950.84;4967489;28;20925;-57
2022/03/12 05:39:19;;;;;;;9.87;7.10;;;-1.00;85.90;;;-1.28;58.37;95957.53;4976871;28;20475;-58
2022/03/12 05:41:49;;;;;;;8.07;5.80;;;-0.90;85.30;;;-1.19;58.69;95966.75;4975346;28;20461;-56
2022/03/12 05:44:16;;;;;;;9.83;6.80;;;-0.80;85.00;;;-1.12;58.07;95970.84;4983609;28;20527;-57
2022/03/12 05:46:43;;;;;;;8.90;7.20;;;-0.70;84.70;;;-1.07;58.03;95971.56;4972149;28;21057;-60
2022/03/12 05:49:11;;;;;;;10.13;7.27;;;-0.70;84.30;;;-1.03;58.02;95978.34;4973305;28;20881;-57
2022/03/12 05:51:39;;;;;;;16.20;9.67;;;-0.60;83.60;;;-1.03;57.86;95978.34;4977098;28;20835;-59
2022/03/12 05:54:06;;;;;;;9.37;7.27;;;-0.60;83.10;;;-1.00;57.63;95983.44;4978718;28;20479;-60
2022/03/12 05:56:33;;;;;;;11.50;7.00;;;-0.60;82.70;;;-0.95;57.54;95985.88;4972142;28;20456;-60
2022/03/12 05:59:02;;;;;;;10.37;7.63;;;-0.60;82.40;;;-0.86;56.87;95984.78;4972464;28;20482;-61
2022/03/12 06:01:30;;;;;;;7.60;6.80;;;-0.50;82.20;;;-0.73;56.79;95992.16;4976379;28;20473;-61
2022/03/12 06:04:00;;;;;;;8.20;7.07;;;-0.40;82.00;;;-0.57;56.70;95986.56;4972523;28;20555;-57
2022/03/12 06:06:34;;;;;;;8.40;6.70;;;-0.20;81.90;;;-0.38;56.06;95992.84;4975948;28;21043;-58
2022/03/12 06:09:01;;;;;;;11.30;7.87;;;-0.10;81.40;;;-0.14;56.13;95995.59;4969251;28;20514;-61
2022/03/12 06:11:29;;;;;;;11.13;7.93;;;0.10;80.70;;;0.12;55.74;95999.09;4969206;28;20448;-60
2022/03/12 06:13:59;;;;;;;12.27;7.23;;;0.40;80.20;;;0.41;54.72;96002.50;4978513;28;20482;-61
2022/03/12 06:16:28;;;;;;;10.10;7.20;;;0.60;79.90;;;0.71;54.79;96000.63;4973699;28;20984;-60
2022/03/12 06:18:55;;;;;;;10.73;7.20;;;0.90;78.80;;;0.95;54.24;95998.94;4971091;28;20472;-55
2022/03/12 06:21:23;;;;;;;16.27;8.40;;;1.10;77.90;;;1.24;53.37;96008.28;4976511;28;20970;-66
2022/03/12 06:23:51;;;;;;;9.60;6.53;;;1.40;77.20;;;1.56;52.71;96002.81;4976484;28;20475;-56
2022/03/12 06:26:18;;;;;;;10.30;7.37;;;1.70;75.60;;;1.88;50.93;96000.75;4974716;28;20639;-61
2022/03/12 06:28:46;;;;;;;9.23;7.30;;;2.00;74.50;;;2.18;49.98;96003.06;4969035;28;20566;-61
2022/03/12 06:31:14;;;;;;;10.67;7.50;;;2.30;72.30;;;2.49;50.28;96010.44;4972837;28;20828;-57
2022/03/12 06:33:43;;;;;;;15.17;8.20;;;2.60;72.00;;;2.83;50.17;96016.84;4969974;28;20581;-59
2022/03/12 06:36:12;;;;;;;11.70;7.23;;;2.90;70.90;;;3.18;48.85;96011.91;4975808;28;20490;-56
2022/03/12 06:38:40;;;;;;;12.73;8.93;;;3.30;69.20;;;3.53;48.55;96015.56;4970215;28;20501;-60
2022/03/12 06:41:07;;;;;;;12.33;7.40;;;3.60;68.10;;;3.80;47.98;96019.59;4974608;28;20463;-61
2022/03/12 06:43:37;;;;;;;14.40;9.50;;;3.90;65.60;;;4.02;46.83;96028.09;4980537;28;20489;-56
2022/03/12 06:46:04;;;;;;;15.43;10.30;;;4.10;63.80;;;4.33;46.53;96023.19;4984365;28;20486;-60
2022/03/12 06:48:32;;;;;;;21.27;11.17;;;4.30;63.40;;;4.67;46.47;96033.66;4971711;28;20478;-65
2022/03/12 06:51:01;;;;;;;13.10;9.13;;;4.70;62.30;;;5.06;45.50;96034.38;4978527;28;20527;-62
2022/03/12 06:53:29;;;;;;;12.50;8.27;;;5.10;60.50;;;5.40;44.03;96027.44;4977228;28;20478;-63
2022/03/12 06:55:58;;;;;;;9.27;7.10;;;5.40;57.70;;;5.67;43.40;96025.16;4980669;28;20459;-57
2022/03/12 06:58:26;;;;;;;7.87;5.30;;;5.70;56.90;;;6.01;42.01;96028.59;4973562;28;20999;-61
2022/03/12 07:00:53;;;;;;;7.87;6.30;;;6.00;54.80;;;6.38;42.75;96030.94;4968310;28;20688;-62
2022/03/12 07:03:20;;;;;;;9.57;7.40;;;6.40;54.60;;;6.73;41.96;96031.56;4973279;28;20475;-61
2022/03/12 07:05:48;;;;;;;11.00;8.70;;;6.70;54.50;;;7.04;41.52;96035.03;4975109;28;20494;-61
2022/03/12 07:08:18;;;;;;;10.90;8.43;;;7.00;54.10;;;7.40;40.93;96033.78;4970117;28;20870;-62
2022/03/12 07:10:46;;;;;;;10.70;7.77;;;7.30;53.10;;;7.81;40.70;96029.63;4969969;28;20451;-56
2022/03/12 07:13:13;;;;;;;10.83;7.10;;;7.70;53.10;;;8.09;39.33;96034.00;4972506;28;20669;-61
2022/03/12 07:15:40;;;;;;;8.33;5.57;;;8.00;51.10;;;8.30;38.45;96036.19;4975217;28;20455;-64
2022/03/12 07:18:07;;;;;;;6.63;5.70;;;8.20;49.40;;;8.49;38.40;96036.75;4971790;28;20492;-56
2022/03/12 07:20:35;;;;;;;5.83;4.67;;;8.30;48.90;;;8.85;38.08;96042.34;4968589;28;20844;-56
2022/03/12 07:23:02;;;;;;;7.87;6.57;;;8.60;48.50;;;9.08;37.70;96038.22;4971888;28;20508;-64
2022/03/12 07:25:32;;;;;;;7.20;6.23;;;8.90;47.50;;;9.23;36.12;96045.03;4969557;28;20546;-64
2022/03/12 07:28:00;;;;;;;8.13;6.00;;;9.10;46.00;;;9.57;37.86;96039.31;4971975;28;20471;-57
2022/03/12 07:30:27;;;;;;;9.93;6.30;;;9.40;47.00;;;10.08;37.23;96047.16;4972630;28;20519;-57
2022/03/12 07:32:54;;;;;;;6.33;5.20;;;9.90;46.50;;;10.68;37.34;96048.19;4970449;28;20493;-64
2022/03/12 07:35:22;;;;;;;9.50;6.07;;;10.40;46.50;;;11.27;34.62;96059.69;4977180;28;21093;-58
2022/03/12 07:37:49;;;;;;;8.27;5.00;;;11.00;44.20;;;11.88;35.73;96059.44;4970991;28;20468;-64
2022/03/12 07:40:17;;;;;;;7.17;5.80;;;11.60;44.40;;;12.48;35.32;96060.06;4971035;28;21004;-61
2022/03/12 07:42:46;;;;;;;6.97;6.03;;;12.20;44.10;;;13.06;30.66;96059.00;4963733;28;20593;-57
2022/03/12 07:45:13;;;;;;;6.23;5.30;;;12.80;38.30;;;13.44;28.90;96055.00;4971765;28;20795;-56
2022/03/12 07:47:41;;;;;;;6.73;5.50;;;13.40;37.40;;;13.83;32.32;96055.25;4970059;28;20490;-58
2022/03/12 07:50:09;;;;;;;6.97;6.27;;;13.90;38.60;;;14.20;30.97;96056.53;4972335;28;20562;-62
2022/03/12 07:52:37;;;;;;;9.60;6.93;;;14.30;37.10;;;14.54;31.45;96059.72;4966845;28;20472;-63
2022/03/12 07:55:07;;;;;;;7.53;6.20;;;14.70;37.50;;;14.82;29.77;96049.38;4969737;28;20457;-62
2022/03/12 07:57:34;;;;;;;6.93;5.80;;;15.10;35.80;;;15.02;28.69;96058.19;4972463;28;20464;-64
2022/03/12 08:00:04;;;;;;;9.83;7.03;;;15.40;34.50;;;14.97;28.23;96045.34;4976892;28;20450;-62
2022/03/12 08:02:31;;;;;;;7.57;6.27;;;15.50;33.60;;;14.77;28.42;96046.31;4965210;28;20474;-62
2022/03/12 08:04:59;;;;;;;5.90;5.40;;;15.30;33.40;;;14.70;26.09;96044.19;4971611;28;21039;-56
2022/03/12 08:07:28;;;;;;;31.93;5.77;;;15.10;30.20;;;14.19;24.04;96045.13;4971083;28;21106;-55
2022/03/12 08:09:57;;;;;;;6.40;4.33;;;14.70;28.40;;;13.24;22.89;96049.53;4976038;28;20483;-63
2022/03/12 08:12:25;;;;;;;6.47;5.77;;;13.90;26.70;;;12.25;26.69;96039.97;4970608;28;20509;-57
2022/03/12 08:14:53;;;;;;;8.17;6.90;;;13.00;29.50;;;11.27;27.75;96055.25;4977456;28;20459;-57
2022/03/12 08:17:24;;;;;;;5.77;5.17;;;12.00;30.30;;;10.38;25.42;96052.06;4973700;28;20471;-54
2022/03/12 08:19:51;;;;;;;8.00;5.27;;;11.00;28.70;;;9.48;26.68;96054.75;4971954;28;20830;-62
2022/03/12 08:22:18;;;;;;;8.10;4.93;;;10.20;30.00;;;8.61;25.87;96056.09;4968308;28;20502;-57
2022/03/12 08:24:46;;;;;;;5.90;5.40;;;9.30;29.50;;;7.87;28.45;96060.69;4967516;28;20766;-57
2022/03/12 08:27:14;;;;;;;192.50;15.07;;;8.50;32.10;;;7.32;30.56;96072.69;4971966;28;20495;-56
2022/03/12 08:29:43;;;;;;;21.27;6.00;;;7.80;34.50;;;6.95;30.46;96073.03;4972333;28;20466;-58
2022/03/12 08:32:11;;;;;;;13.93;6.47;;;7.40;35.60;;;6.81;31.28;96076.41;4972377;28;20467;-56
2022/03/12 08:34:40;;;;;;;9.07;6.30;;;7.10;37.10;;;6.61;31.35;96068.88;4969880;28;20451;-54
2022/03/12 08:37:08;;;;;;;8.00;5.40;;;6.80;36.60;;;6.22;32.87;96073.59;4969652;28;20546;-57
2022/03/12 08:39:35;;;;;;;9.40;7.70;;;6.50;37.90;;;5.89;33.78;96071.00;4968898;28;20462;-58
2022/03/12 08:42:03;;;;;;;9.37;7.33;;;6.20;39.40;;;5.61;33.32;96072.47;4970560;28;20455;-55
2022/03/12 08:44:30;;;;;;;7.73;5.67;;;5.90;39.20;;;5.30;32.77;96065.34;4970992;28;20546;-56
2022/03/12 08:46:58;;;;;;;7.57;5.10;;;5.60;38.50;;;4.97;33.05;96072.19;4970994;28;20480;-55
2022/03/12 08:49:25;;;;;;;6.17;5.60;;;5.30;38.20;;;4.71;34.64;96072.59;4971233;28;20562;-56
2022/03/12 08:51:54;;;;;;;8.97;4.70;;;5.10;39.80;;;4.61;34.95;96073.03;4973428;28;20513;-59
2022/03/12 08:54:21;;;;;;;8.33;5.73;;;4.90;41.20;;;4.59;35.86;96074.91;4968486;28;20979;-55
2022/03/12 08:56:48;;;;;;;12.33;5.37;;;4.90;41.80;;;4.55;34.80;96075.13;4974148;28;20530;-58
2022/03/12 08:59:16;;;;;;;14.40;5.60;;;4.80;41.50;;;4.47;34.84;96078.09;4963444;28;21023;-55
2022/03/12 09:01:44;;;;;;;8.83;6.53;;;4.70;41.40;;;4.41;35.45;96067.94;4977983;28;20462;-56
2022/03/12 09:04:12;;;;;;;7.23;5.10;;;4.70;41.90;;;4.26;35.25;96072.09;4973826;28;20482;-59
2022/03/12 09:06:39;;;;;;;7.17;5.67;;;4.60;41.00;;;4.09;36.06;96078.09;4966725;28;20808;-60
2022/03/12 09:09:08;;;;;;;10.40;5.97;;;4.40;41.40;;;3.93;35.36;96084.03;4971348;28;20937;-56
2022/03/12 09:11:37;;;;;;;6.43;4.67;;;4.20;41.60;;;3.77;35.70;96083.84;4967515;28;20470;-58
2022/03/12 09:14:04;;;;;;;5.70;5.10;;;4.10;41.70;;;3.65;35.58;96083.56;4977919;28;20964;-55
2022/03/12 09:16:31;;;;;;;5.80;4.57;;;4.00;41.50;;;3.84;35.48;96088.78;4968863;28;20557;-58
2022/03/12 09:18:59;;;;;;;5.03;4.63;;;4.10;42.30;;;4.14;35.14;96083.97;4968912;28;20471;-60
2022/03/12 09:21:26;;;;;;;6.90;4.87;;;4.30;42.80;;;4.47;37.24;96088.50;4970359;28;20454;-55
2022/03/12 09:23:53;;;;;;;5.10;4.07;;;4.60;43.80;;;4.90;35.06;96091.66;4976727;28;20538;-57
2022/03/12 09:26:22;;;;;;;7.03;4.13;;;5.00;42.70;;;5.42;33.15;96087.38;4969077;28;20533;-55
2022/03/12 09:28:50;;;;;;;7.27;5.27;;;5.40;40.80;;;5.76;32.36;96091.69;4969503;28;20498;-56
2022/03/12 09:31:17;;;;;;;5.00;4.27;;;5.80;39.30;;;5.97;31.28;96089.75;4977662;28;20463;-60
2022/03/12 09:33:45;;;;;;;4.27;3.83;;;6.00;38.20;;;6.21;32.60;96084.13;4970750;28;20493;-58
2022/03/12 09:36:12;;;;;;;5.10;3.80;;;6.30;39.00;;;6.41;31.05;96086.53;4968627;28;20455;-58
2022/03/12 09:38:39;;;;;;;5.53;4.90;;;6.40;37.80;;;6.47;32.52;96077.47;4971633;28;20494;-57
2022/03/12 09:41:07;;;;;;;5.20;4.70;;;6.50;38.50;;;6.40;31.92;96086.59;4970806;28;20460;-57
2022/03/12 09:43:36;;;;;;;4.73;4.27;;;6.60;38.40;;;6.18;30.83;96076.47;4980998;28;20475;-56
2022/03/12 09:46:04;;;;;;;4.63;4.07;;;6.40;36.40;;;5.85;31.45;96064.25;4976872;28;21043;-55
2022/03/12 09:48:31;;;;;;;5.07;4.37;;;6.20;36.90;;;5.59;31.47;96068.22;4973649;28;20490;-58
2022/03/12 09:50:58;;;;;;;6.17;4.40;;;5.90;37.10;;;5.62;33.11;96068.91;4976148;28;20454;-56
2022/03/12 09:53:26;;;;;;;4.10;3.70;;;5.90;38.70;;;5.72;32.62;96067.50;4971034;28;20498;-55
2022/03/12 09:55:53;;;;;;;23.03;4.10;;;5.90;38.40;;;5.77;33.17;96071.66;4973695;28;20461;-59
2022/03/12 09:58:21;;;;;;;5.30;4.23;;;6.00;39.20;;;5.94;33.28;96066.38;4970964;28;20471;-56
2022/03/12 10:00:49;;;;;;;5.80;4.60;;;6.10;39.70;;;6.25;31.53;96062.16;4973797;28;20952;-58
2022/03/12 10:03:17;;;;;;;5.03;4.27;;;6.40;38.50;;;6.48;31.97;96065.28;4975771;28;20466;-58
2022/03/12 10:05:44;;;;;;;7.77;3.90;;;6.60;37.80;;;6.64;31.54;96068.69;4974257;28;20535;-58
2022/03/12 10:08:11;;;;;;;3.97;3.57;;;6.80;38.00;;;6.75;30.95;96071.53;4972637;28;20498;-59
2022/03/12 10:10:39;;;;;;;4.23;3.80;;;6.90;36.60;;;6.86;31.70;96078.78;4972782;28;20451;-58
2022/03/12 10:13:06;;;;;;;4.27;3.90;;;7.00;37.00;;;7.03;31.77;96075.19;4982587;28;20561;-55
2022/03/12 10:15:33;;;;;;;12.07;4.30;;;7.10;37.60;;;7.16;31.21;96070.97;4984477;28;20485;-58
2022/03/12 10:18:02;;;;;;;9.90;4.23;;;7.20;36.80;;;7.21;31.43;96065.44;4977576;28;20542;-57
2022/03/12 10:20:30;;;;;;;4.27;3.50;;;7.30;37.00;;;7.16;31.06;96068.34;4973065;28;20448;-57
2022/03/12 10:22:57;;;;;;;4.80;4.40;;;7.30;36.80;;;7.16;32.22;96064.88;4978482;28;20967;-57
2022/03/12 10:25:25;;;;;;;9.87;4.73;;;7.30;37.70;;;7.13;32.69;96065.06;4988743;28;21013;-56
2022/03/12 10:27:52;;;;;;;4.67;4.23;;;7.30;38.40;;;7.08;30.63;96061.84;4978871;28;20553;-56